Time;durP1;ratioP1;P1;durP2;ratioP2;P2;SDS_P1;SDS_P2;PMS_P1;PMS_P2;Temp;Humidity;BMP_temperature;BMP_pressure;BME280_temperature;BME280_humidity;BME280_pressure;Samples;Min_cycle;Max_cycle;Signal;HPM_P1;HPM_P2
2022/10/22 00:01:51;;;;;;;21.03;16.97;;;;;;;6.60;94.80;93641.66;5067847;28;20824;-69
2022/10/22 00:04:16;;;;;;;22.43;17.47;;;;;;;6.74;94.95;93635.22;5068110;28;20233;-68
2022/10/22 00:06:43;;;;;;;22.77;14.93;;;;;;;6.67;95.48;93633.75;5068493;28;20179;-70
2022/10/22 00:09:10;;;;;;;18.10;16.03;;;;;;;6.60;95.80;93627.94;5069040;28;20221;-69
2022/10/22 00:11:35;;;;;;;19.00;16.97;;;;;;;6.64;95.95;93629.03;5072109;28;20264;-69
2022/10/22 00:14:01;;;;;;;17.83;16.20;;;;;;;6.69;96.04;93631.75;5071721;28;20225;-70
2022/10/22 00:16:26;;;;;;;17.87;16.07;;;;;;;6.55;96.54;93639.00;5071183;28;20299;-67
2022/10/22 00:18:51;;;;;;;18.57;16.87;;;;;;;6.53;96.96;93635.84;5071652;28;20235;-68
2022/10/22 00:21:17;;;;;;;18.73;16.87;;;;;;;6.50;97.29;93636.28;5072062;28;20627;-69
2022/10/22 00:23:42;;;;;;;20.20;18.07;;;;;;;6.50;96.95;93644.06;5071214;28;20280;-68
2022/10/22 00:26:09;;;;;;;18.87;16.70;;;;;;;6.33;96.90;93618.03;5072087;28;20181;-68
2022/10/22 00:28:34;;;;;;;18.60;16.67;;;;;;;6.44;96.68;93634.59;5070297;28;20237;-69
2022/10/22 00:31:00;;;;;;;17.90;16.10;;;;;;;6.34;97.20;93629.19;5072109;28;20200;-70
2022/10/22 00:33:27;;;;;;;18.63;16.73;;;;;;;6.36;97.47;93629.78;5071438;28;20221;-69
2022/10/22 00:35:52;;;;;;;18.53;16.73;;;;;;;6.39;97.36;93621.53;5071683;28;20209;-69
2022/10/22 00:38:17;;;;;;;20.23;18.07;;;;;;;6.45;96.66;93600.66;5071644;28;20233;-68
2022/10/22 00:40:43;;;;;;;19.13;17.23;;;;;;;6.39;97.14;93600.78;5071765;28;20224;-69
2022/10/22 00:43:13;;;;;;;17.77;16.17;;;;;;;6.51;97.05;93612.72;5069798;28;20239;-68
2022/10/22 00:45:39;;;;;;;16.87;15.30;;;;;;;6.43;97.09;93612.25;5071968;28;20260;-69
2022/10/22 00:48:11;;;;;;;15.63;13.90;;;;;;;6.32;97.99;93613.88;5070765;28;20229;-69
2022/10/22 00:50:40;;;;;;;17.40;15.50;;;;;;;6.23;98.72;93622.22;5071306;28;21035;-69
2022/10/22 00:53:09;;;;;;;17.90;16.00;;;;;;;6.29;97.95;93616.91;5070235;28;20229;-69
2022/10/22 00:55:35;;;;;;;17.30;15.60;;;;;;;6.30;97.79;93625.50;5071062;28;20219;-69
2022/10/22 00:58:01;;;;;;;18.43;16.43;;;;;;;6.26;97.96;93616.56;5069976;28;20293;-70
2022/10/22 01:00:26;;;;;;;18.70;16.80;;;;;;;6.30;97.91;93613.31;5071415;28;20196;-69
2022/10/22 01:02:53;;;;;;;18.20;16.40;;;;;;;6.11;99.00;93605.88;5070573;28;20185;-69
2022/10/22 01:05:19;;;;;;;20.07;17.13;;;;;;;6.19;98.97;93610.72;5071446;28;20201;-69
2022/10/22 01:07:50;;;;;;;19.23;17.17;;;;;;;6.17;99.30;93594.59;5070618;28;20269;-69
2022/10/22 01:10:18;;;;;;;19.50;17.20;;;;;;;6.19;98.99;93588.19;5070287;28;20217;-69
2022/10/22 01:13:09;;;;;;;19.90;17.83;;;;;;;6.30;98.94;93589.19;5070180;28;20181;-70
2022/10/22 01:15:49;;;;;;;19.43;17.50;;;;;;;6.34;98.21;93587.72;5070487;28;20270;-69
2022/10/22 01:18:23;;;;;;;17.40;15.57;;;;;;;6.30;98.02;93577.00;5070125;28;20232;-69
2022/10/22 01:21:01;;;;;;;17.90;16.13;;;;;;;6.25;98.35;93570.94;5068794;28;20219;-69
2022/10/22 01:23:49;;;;;;;17.17;15.40;;;;;;;6.12;98.45;93574.56;5069037;28;20258;-70
2022/10/22 01:26:17;;;;;;;18.30;16.47;;;;;;;6.14;98.68;93574.31;5071390;28;20189;-69
2022/10/22 01:28:57;;;;;;;18.03;16.13;;;;;;;6.08;99.15;93578.63;5070477;28;20288;-69
2022/10/22 01:31:25;;;;;;;23.43;16.83;;;;;;;6.06;99.80;93566.91;5069736;28;20186;-69
2022/10/22 01:33:53;;;;;;;19.70;17.50;;;;;;;6.05;100.00;93550.56;5068506;28;20224;-69
2022/10/22 01:36:20;;;;;;;17.40;15.63;;;;;;;6.22;99.24;93564.41;5070159;28;20217;-69
2022/10/22 01:38:46;;;;;;;17.67;15.80;;;;;;;6.20;98.93;93556.06;5070001;28;20411;-68
2022/10/22 01:41:12;;;;;;;16.13;14.57;;;;;;;6.22;98.78;93550.66;5070903;28;20186;-69
2022/10/22 01:43:38;;;;;;;17.67;16.00;;;;;;;6.13;99.09;93554.63;5070044;28;20239;-69
2022/10/22 01:46:05;;;;;;;17.40;15.80;;;;;;;6.05;99.33;93542.00;5070618;28;20177;-69
2022/10/22 01:48:39;;;;;;;16.93;15.37;;;;;;;6.18;99.26;93544.31;5069800;28;20228;-69
2022/10/22 01:51:29;;;;;;;17.33;15.53;;;;;;;6.19;98.72;93549.31;5070489;28;20184;-70
2022/10/22 01:54:01;;;;;;;17.37;15.63;;;;;;;6.24;98.67;93551.22;5069919;28;20237;-69
2022/10/22 01:56:52;;;;;;;17.47;15.73;;;;;;;6.24;98.36;93551.97;5070222;28;20217;-69
2022/10/22 01:59:26;;;;;;;17.07;15.37;;;;;;;6.11;98.91;93554.84;5068254;28;20312;-69
2022/10/22 02:02:44;;;;;;;16.77;15.07;;;;;;;6.18;98.70;93557.28;5069547;28;20197;-69
2022/10/22 02:05:23;;;;;;;17.10;15.43;;;;;;;6.12;99.27;93553.03;5020173;28;20221;-69
2022/10/22 02:07:53;;;;;;;18.47;16.77;;;;;;;6.03;99.42;93559.56;5061484;28;20185;-70
2022/10/22 02:10:20;;;;;;;17.23;15.27;;;;;;;5.98;100.00;93556.88;5058515;28;20283;-70
2022/10/22 02:12:50;;;;;;;17.13;15.50;;;;;;;6.09;99.86;93564.66;5059739;28;20194;-69
2022/10/22 02:15:18;;;;;;;17.10;15.17;;;;;;;6.08;99.56;93562.28;5060745;28;20242;-69
2022/10/22 02:17:45;;;;;;;16.77;15.17;;;;;;;6.05;99.72;93562.75;5062415;28;20190;-69
2022/10/22 02:20:25;;;;;;;16.63;14.83;;;;;;;6.13;99.44;93552.78;5060148;28;20182;-70
2022/10/22 02:22:51;;;;;;;17.33;15.63;;;;;;;6.17;99.15;93551.34;5064059;28;20192;-70
2022/10/22 02:25:16;;;;;;;17.90;16.20;;;;;;;6.13;99.01;93550.19;5060728;28;20170;-68
2022/10/22 02:27:50;;;;;;;15.23;13.73;;;;;;;6.12;99.06;93540.84;5064158;28;20192;-70
2022/10/22 02:30:18;;;;;;;15.57;14.17;;;;;;;6.21;98.91;93539.47;5064426;28;20182;-70
2022/10/22 02:33:10;;;;;;;17.23;15.27;;;;;;;6.32;98.40;93532.69;5060447;28;20194;-69
2022/10/22 02:35:39;;;;;;;19.23;15.67;;;;;;;6.20;98.70;93542.31;5067997;28;20296;-70
2022/10/22 02:38:06;;;;;;;17.80;16.03;;;;;;;6.09;98.95;93553.47;5068732;28;20217;-69
2022/10/22 02:40:31;;;;;;;18.27;16.47;;;;;;;6.29;98.47;93565.06;5068690;28;21180;-69
2022/10/22 02:42:57;;;;;;;18.80;17.13;;;;;;;6.18;99.34;93572.84;5067758;28;20244;-69
2022/10/22 02:45:23;;;;;;;19.97;16.97;;;;;;;6.10;99.00;93563.63;5069291;28;20212;-69
2022/10/22 02:47:48;;;;;;;15.83;14.23;;;;;;;6.17;99.59;93566.09;5068938;28;20196;-69
2022/10/22 02:50:14;;;;;;;18.17;15.67;;;;;;;6.12;98.69;93563.38;5069307;28;20772;-69
2022/10/22 02:52:39;;;;;;;16.83;15.17;;;;;;;6.07;98.63;93565.91;5069480;28;20761;-70
2022/10/22 02:55:05;;;;;;;18.30;16.47;;;;;;;5.94;99.91;93563.53;5069719;28;20213;-69
2022/10/22 02:57:31;;;;;;;17.90;15.90;;;;;;;6.08;99.60;93570.06;5069221;28;20254;-69
2022/10/22 02:59:56;;;;;;;17.43;15.47;;;;;;;6.11;98.63;93567.00;5068588;28;20224;-69
2022/10/22 03:02:22;;;;;;;19.13;17.10;;;;;;;6.01;98.80;93569.38;5069039;28;20190;-70
2022/10/22 03:04:47;;;;;;;18.70;15.73;;;;;;;6.05;98.67;93567.91;5068812;28;20242;-69
2022/10/22 03:07:12;;;;;;;18.77;16.97;;;;;;;6.03;98.87;93564.75;5068520;28;20189;-68
2022/10/22 03:09:38;;;;;;;17.20;15.70;;;;;;;5.90;99.49;93554.66;5068408;28;20229;-69
2022/10/22 03:12:04;;;;;;;17.33;15.53;;;;;;;5.94;99.55;93560.94;5076443;28;20209;-70
2022/10/22 03:14:29;;;;;;;17.77;16.10;;;;;;;5.92;98.99;93562.97;5068891;28;20289;-69
2022/10/22 03:16:54;;;;;;;17.37;15.77;;;;;;;5.90;99.14;93565.00;5069389;28;20247;-68
2022/10/22 03:19:20;;;;;;;19.80;16.93;;;;;;;5.88;99.11;93572.22;5068515;28;20247;-69
2022/10/22 03:21:59;;;;;;;19.73;15.10;;;;;;;5.92;99.38;93561.16;5068398;28;20185;-70
2022/10/22 03:24:30;;;;;;;18.90;16.93;;;;;;;5.83;99.65;93559.94;5068198;28;20213;-69
2022/10/22 03:26:56;;;;;;;18.50;16.70;;;;;;;5.86;99.58;93551.72;5069461;28;20189;-68
2022/10/22 03:29:24;;;;;;;20.60;16.00;;;;;;;5.74;100.00;93542.34;5068551;28;20217;-69
2022/10/22 03:31:51;;;;;;;20.40;17.10;;;;;;;5.67;100.00;93546.81;5069304;28;20265;-69
2022/10/22 03:34:16;;;;;;;17.23;15.50;;;;;;;5.79;100.00;93534.69;5068428;28;20217;-67
2022/10/22 03:36:42;;;;;;;16.30;14.47;;;;;;;5.78;99.98;93539.06;5068740;28;20219;-66
2022/10/22 03:39:08;;;;;;;16.43;14.77;;;;;;;5.88;99.48;93556.66;5068542;28;20260;-66
2022/10/22 03:41:34;;;;;;;16.90;15.30;;;;;;;5.83;99.84;93556.56;5068470;28;20177;-66
2022/10/22 03:44:03;;;;;;;14.53;13.20;;;;;;;5.86;99.39;93553.50;5068920;28;20225;-66
2022/10/22 03:46:28;;;;;;;16.40;14.83;;;;;;;5.80;99.37;93541.44;5070314;28;20170;-67
2022/10/22 03:48:54;;;;;;;16.07;13.83;;;;;;;5.94;99.44;93545.41;5071298;28;20252;-68
2022/10/22 03:51:19;;;;;;;16.53;14.83;;;;;;;5.87;99.51;93531.75;5072229;28;20212;-67
2022/10/22 03:53:44;;;;;;;16.70;15.10;;;;;;;5.79;99.46;93537.28;5072346;28;20225;-66
2022/10/22 03:56:11;;;;;;;16.67;14.97;;;;;;;5.63;99.56;93525.00;5072862;28;20205;-66
2022/10/22 03:58:38;;;;;;;20.13;16.10;;;;;;;5.65;100.00;93559.25;5071934;28;20221;-66
2022/10/22 04:01:06;;;;;;;19.63;17.53;;;;;;;5.77;100.00;93562.59;5072319;28;20204;-67
2022/10/22 04:03:31;;;;;;;20.40;16.97;;;;;;;5.80;100.00;93562.16;5071842;28;20256;-66
2022/10/22 04:06:04;;;;;;;17.93;16.20;;;;;;;5.81;100.00;93555.94;5071035;28;20217;-66
2022/10/22 04:08:30;;;;;;;21.17;18.83;;;;;;;5.74;100.00;93555.28;5071171;28;20221;-66
2022/10/22 04:10:55;;;;;;;17.67;16.03;;;;;;;5.49;100.00;93506.31;5072344;28;20229;-67
2022/10/22 04:13:20;;;;;;;21.03;18.57;;;;;;;5.77;100.00;93539.28;5072226;28;20300;-66
2022/10/22 04:15:46;;;;;;;22.20;16.87;;;;;;;5.82;100.00;93531.66;5070776;28;20312;-66
2022/10/22 04:18:11;;;;;;;19.97;15.93;;;;;;;6.14;99.72;93540.63;5071613;28;20649;-66
2022/10/22 04:20:36;;;;;;;18.40;16.77;;;;;;;6.14;99.03;93535.44;5070860;28;20204;-69
2022/10/22 04:23:02;;;;;;;17.67;15.97;;;;;;;6.20;98.87;93530.13;5068508;28;20232;-69
2022/10/22 04:25:28;;;;;;;18.57;16.37;;;;;;;6.26;99.56;93534.41;5071640;28;20212;-68
2022/10/22 04:27:54;;;;;;;18.73;16.83;;;;;;;6.38;98.57;93524.00;5071074;28;20200;-68
2022/10/22 04:30:19;;;;;;;20.17;16.67;;;;;;;6.19;99.17;93504.44;5071138;28;20190;-68
2022/10/22 04:32:44;;;;;;;19.20;17.07;;;;;;;6.24;99.79;93509.72;5070138;28;20209;-69
2022/10/22 04:35:10;;;;;;;19.13;16.53;;;;;;;6.45;99.88;93525.44;5070846;28;20177;-68
2022/10/22 04:37:35;;;;;;;18.17;16.37;;;;;;;6.56;98.68;93529.00;5070448;28;20188;-69
2022/10/22 04:40:00;;;;;;;19.53;15.53;;;;;;;6.58;98.68;93534.75;5070049;28;20288;-69
2022/10/22 04:42:26;;;;;;;19.37;17.43;;;;;;;6.67;98.71;93538.56;5069300;28;20247;-68
2022/10/22 04:44:51;;;;;;;20.13;17.20;;;;;;;6.68;98.68;93539.34;5069989;28;20221;-69
2022/10/22 04:47:16;;;;;;;20.27;18.33;;;;;;;6.67;98.82;93535.97;5069598;28;20223;-67
2022/10/22 04:49:42;;;;;;;19.70;17.43;;;;;;;6.68;99.05;93542.72;5069023;28;20301;-66
2022/10/22 04:52:07;;;;;;;20.83;17.90;;;;;;;6.69;99.04;93527.94;5069808;28;20196;-67
2022/10/22 04:54:32;;;;;;;19.87;17.73;;;;;;;6.83;98.80;93534.44;5069580;28;20231;-67
2022/10/22 04:56:58;;;;;;;20.93;18.20;;;;;;;6.97;97.67;93533.91;5069718;28;20240;-67
2022/10/22 04:59:23;;;;;;;23.97;18.30;;;;;;;6.95;97.54;93538.56;5069451;28;20328;-67
2022/10/22 05:01:49;;;;;;;19.50;17.43;;;;;;;7.00;97.61;93551.63;5069594;28;20190;-67
2022/10/22 05:04:16;;;;;;;19.33;17.47;;;;;;;7.06;97.43;93558.47;5070069;28;20854;-65
2022/10/22 05:06:42;;;;;;;21.20;17.83;;;;;;;7.13;97.02;93559.09;5069488;28;20232;-67
2022/10/22 05:09:14;;;;;;;19.07;16.93;;;;;;;7.07;96.75;93551.44;5069328;28;20217;-70
2022/10/22 05:11:44;;;;;;;18.40;16.60;;;;;;;7.14;96.89;93547.72;5069286;28;20229;-67
2022/10/22 05:14:10;;;;;;;18.93;16.53;;;;;;;7.25;96.36;93544.28;5069550;28;20305;-66
2022/10/22 05:16:36;;;;;;;20.43;17.73;;;;;;;7.26;95.88;93543.22;5069203;28;20232;-66
2022/10/22 05:19:03;;;;;;;19.73;17.77;;;;;;;7.47;95.13;93572.94;5069937;28;20225;-65
2022/10/22 05:21:28;;;;;;;20.37;18.20;;;;;;;7.40;94.98;93574.88;5069832;28;20197;-69
2022/10/22 05:23:55;;;;;;;23.43;18.13;;;;;;;7.45;94.73;93578.34;5070192;28;20233;-69
2022/10/22 05:26:22;;;;;;;22.03;18.80;;;;;;;7.40;94.99;93575.66;5069287;28;20192;-66
2022/10/22 05:28:48;;;;;;;22.00;19.10;;;;;;;7.30;95.88;93564.34;5069356;28;20248;-67
2022/10/22 05:31:15;;;;;;;26.00;21.53;;;;;;;7.10;97.08;93556.97;5069154;28;20186;-67
2022/10/22 05:33:41;;;;;;;24.00;19.93;;;;;;;7.05;96.88;93543.91;5060343;28;20225;-69
2022/10/22 05:36:11;;;;;;;27.83;21.33;;;;;;;7.20;96.83;93566.75;5046998;28;20285;-69
2022/10/22 05:38:36;;;;;;;24.67;19.83;;;;;;;7.27;96.41;93568.16;5048811;28;20229;-67
2022/10/22 05:41:10;;;;;;;25.07;20.73;;;;;;;7.32;95.92;93586.44;5050004;28;20217;-70
2022/10/22 05:43:36;;;;;;;27.93;19.90;;;;;;;7.25;96.02;93580.63;5075684;28;20230;-68
2022/10/22 05:46:07;;;;;;;30.70;19.93;;;;;;;7.34;96.30;93576.63;5048730;28;20248;-69
2022/10/22 05:48:32;;;;;;;29.10;21.73;;;;;;;7.34;95.91;93573.22;5048233;28;20240;-68
2022/10/22 05:51:12;;;;;;;32.70;22.63;;;;;;;7.23;96.45;93576.66;5049026;28;20198;-68
2022/10/22 05:53:40;;;;;;;25.97;21.03;;;;;;;7.17;96.39;93583.59;5048452;28;21130;-68
2022/10/22 05:56:09;;;;;;;28.73;21.60;;;;;;;7.17;96.84;93575.00;5049314;28;20217;-70
2022/10/22 05:58:35;;;;;;;31.07;21.43;;;;;;;7.20;97.10;93567.53;5056407;28;20213;-68
2022/10/22 06:01:07;;;;;;;30.53;21.17;;;;;;;7.23;97.13;93576.66;5069594;28;20212;-68
2022/10/22 06:03:32;;;;;;;31.70;22.27;;;;;;;7.25;96.68;93564.25;5067545;28;20227;-68
2022/10/22 06:06:03;;;;;;;26.20;21.67;;;;;;;7.19;97.14;93565.19;5068361;28;20221;-68
2022/10/22 06:08:29;;;;;;;30.93;22.73;;;;;;;7.42;97.19;93581.44;5060078;28;20244;-68
2022/10/22 06:10:55;;;;;;;34.00;24.93;;;;;;;7.57;96.22;93578.28;5048580;28;20217;-68
2022/10/22 06:13:21;;;;;;;32.37;23.60;;;;;;;7.73;95.42;93583.47;5045376;28;20230;-68
2022/10/22 06:15:47;;;;;;;30.00;23.93;;;;;;;7.85;95.02;93563.38;5042034;28;20239;-68
2022/10/22 06:18:13;;;;;;;30.60;22.60;;;;;;;8.02;94.43;93553.75;5042929;28;20257;-68
2022/10/22 06:20:38;;;;;;;31.63;22.63;;;;;;;8.29;93.24;93576.47;5046950;28;20225;-67
2022/10/22 06:23:03;;;;;;;25.83;21.70;;;;;;;8.51;92.69;93585.09;5046512;28;20234;-67
2022/10/22 06:25:29;;;;;;;29.70;21.20;;;;;;;8.66;91.66;93586.06;5048217;28;20220;-66
2022/10/22 06:27:54;;;;;;;32.07;22.00;;;;;;;8.76;90.29;93585.41;5051556;28;20194;-67
2022/10/22 06:30:20;;;;;;;29.27;21.43;;;;;;;8.88;88.53;93586.06;5068942;28;20189;-69
2022/10/22 06:32:45;;;;;;;30.53;24.20;;;;;;;8.92;88.77;93592.38;5068361;28;20185;-68
2022/10/22 06:35:10;;;;;;;34.37;23.03;;;;;;;9.00;89.07;93584.09;5068530;28;20240;-67
2022/10/22 06:37:36;;;;;;;31.47;24.53;;;;;;;8.91;91.57;93583.75;5068448;28;20202;-68
2022/10/22 06:40:01;;;;;;;27.10;22.57;;;;;;;8.94;91.03;93596.28;5069092;28;20239;-68
2022/10/22 06:42:27;;;;;;;37.03;24.63;;;;;;;8.87;92.93;93606.09;5066747;28;20202;-68
2022/10/22 06:44:53;;;;;;;33.13;24.10;;;;;;;8.88;92.44;93615.50;5067223;28;20303;-68
2022/10/22 06:47:18;;;;;;;34.73;24.07;;;;;;;9.01;92.14;93591.66;5068836;28;20217;-67
2022/10/22 06:49:43;;;;;;;30.63;23.27;;;;;;;9.04;91.73;93600.81;5068273;28;20228;-68
2022/10/22 06:52:09;;;;;;;31.27;24.00;;;;;;;9.19;90.49;93600.97;5069102;28;20956;-67
2022/10/22 06:54:34;;;;;;;28.87;22.47;;;;;;;9.14;89.04;93596.50;5068475;28;20217;-66
2022/10/22 06:57:00;;;;;;;32.17;24.20;;;;;;;9.24;88.91;93590.59;5068944;28;20284;-66
2022/10/22 06:59:25;;;;;;;33.43;24.73;;;;;;;9.11;88.20;93570.94;5067365;28;20311;-68
2022/10/22 07:01:50;;;;;;;29.20;22.70;;;;;;;9.26;87.54;93586.72;5067580;28;20189;-69
2022/10/22 07:04:16;;;;;;;29.43;23.03;;;;;;;9.28;89.04;93609.91;5067893;28;20225;-67
2022/10/22 07:06:41;;;;;;;30.73;22.23;;;;;;;9.52;87.11;93608.59;5068194;28;20203;-67
2022/10/22 07:09:06;;;;;;;32.93;24.03;;;;;;;9.32;89.21;93600.59;5067737;28;20236;-68
2022/10/22 07:11:44;;;;;;;30.73;21.43;;;;;;;9.69;86.80;93611.88;5067259;28;20241;-68
2022/10/22 07:14:09;;;;;;;30.57;23.47;;;;;;;9.50;87.89;93597.63;5067818;28;20247;-69
2022/10/22 07:16:35;;;;;;;38.17;24.23;;;;;;;9.59;87.98;93583.88;5066571;28;20213;-72
2022/10/22 07:19:02;;;;;;;31.53;24.07;;;;;;;9.76;87.59;93591.59;5069286;28;20217;-68
2022/10/22 07:21:28;;;;;;;29.90;21.97;;;;;;;9.85;87.20;93591.91;5072308;28;20199;-68
2022/10/22 07:23:54;;;;;;;28.23;23.17;;;;;;;9.84;87.52;93590.34;5070506;28;20339;-69
2022/10/22 07:26:19;;;;;;;30.37;23.30;;;;;;;9.95;87.78;93590.16;5072731;28;20196;-70
2022/10/22 07:28:45;;;;;;;33.53;23.27;;;;;;;10.22;85.03;93598.75;5072010;28;20224;-68
2022/10/22 07:31:13;;;;;;;26.13;21.77;;;;;;;10.26;84.56;93605.00;5070848;28;20197;-67
2022/10/22 07:33:38;;;;;;;27.30;22.07;;;;;;;10.31;84.97;93602.44;5070701;28;20224;-68
2022/10/22 07:36:07;;;;;;;34.43;22.37;;;;;;;10.43;84.19;93597.81;5071379;28;20217;-68
2022/10/22 07:38:32;;;;;;;30.03;22.03;;;;;;;10.53;82.61;93595.25;5070909;28;20221;-68
2022/10/22 07:40:58;;;;;;;29.33;23.37;;;;;;;10.63;82.67;93605.75;5069877;28;20184;-67
2022/10/22 07:43:24;;;;;;;30.47;22.77;;;;;;;10.66;83.07;93600.00;5071125;28;20224;-67
2022/10/22 07:45:49;;;;;;;32.47;22.43;;;;;;;10.89;82.01;93599.59;5071261;28;20189;-67
2022/10/22 07:48:15;;;;;;;31.27;24.20;;;;;;;10.97;81.17;93593.88;5071043;28;20233;-68
2022/10/22 07:50:41;;;;;;;28.00;21.80;;;;;;;10.75;82.41;93597.72;5070325;28;20194;-68
2022/10/22 07:53:06;;;;;;;30.50;22.50;;;;;;;10.96;80.45;93586.28;5070719;28;20224;-68
2022/10/22 07:55:33;;;;;;;25.13;20.70;;;;;;;10.46;82.82;93565.22;5071417;28;20213;-69
2022/10/22 07:57:58;;;;;;;25.33;21.37;;;;;;;10.84;81.35;93576.06;5070862;28;20248;-68
2022/10/22 08:00:23;;;;;;;23.13;20.63;;;;;;;10.68;82.30;93577.03;5070897;28;21027;-68
2022/10/22 08:02:49;;;;;;;21.63;19.30;;;;;;;11.00;81.05;93580.28;5070704;28;20276;-67
2022/10/22 08:05:15;;;;;;;23.80;19.90;;;;;;;11.12;80.99;93573.03;5071306;28;20197;-65
2022/10/22 08:07:41;;;;;;;24.37;20.53;;;;;;;11.31;78.56;93586.38;5069083;28;20797;-67
2022/10/22 08:10:07;;;;;;;21.73;19.57;;;;;;;11.26;79.18;93581.94;5050464;28;20214;-68
2022/10/22 08:12:32;;;;;;;28.63;21.00;;;;;;;11.38;79.02;93592.94;5050845;28;20359;-69
2022/10/22 08:14:59;;;;;;;28.13;20.67;;;;;;;11.69;76.79;93588.56;5044449;28;20206;-67
2022/10/22 08:17:25;;;;;;;26.23;21.43;;;;;;;11.42;76.74;93582.75;5046985;28;20237;-68
2022/10/22 08:19:50;;;;;;;24.50;19.93;;;;;;;11.23;77.70;93558.94;5067155;28;20233;-68
2022/10/22 08:22:16;;;;;;;28.47;21.10;;;;;;;11.51;76.34;93567.31;5070911;28;20221;-69
2022/10/22 08:24:41;;;;;;;28.87;24.00;;;;;;;11.72;75.01;93572.34;5070434;28;20229;-68
2022/10/22 08:27:07;;;;;;;27.73;20.63;;;;;;;11.54;75.59;93564.19;5071046;28;20201;-68
2022/10/22 08:29:32;;;;;;;29.73;22.50;;;;;;;11.75;75.45;93576.28;5069430;28;20249;-66
2022/10/22 08:31:57;;;;;;;30.60;20.83;;;;;;;11.69;76.21;93566.84;5070562;28;20202;-68
2022/10/22 08:34:23;;;;;;;27.77;21.40;;;;;;;11.80;75.48;93571.06;5069607;28;20224;-67
2022/10/22 08:36:48;;;;;;;23.97;21.13;;;;;;;11.55;76.28;93563.16;5070257;28;20248;-67
2022/10/22 08:39:14;;;;;;;25.03;19.97;;;;;;;11.65;75.82;93566.59;5069705;28;20300;-69
2022/10/22 08:42:16;;;;;;;29.77;21.60;;;;;;;12.09;73.63;93574.69;5070057;28;20233;-66
2022/10/22 08:45:10;;;;;;;30.27;22.13;;;;;;;12.07;73.81;93577.56;5085182;28;20230;-67
2022/10/22 08:48:02;;;;;;;26.23;21.40;;;;;;;12.05;74.44;93578.84;5069835;28;20275;-66
2022/10/22 08:50:47;;;;;;;29.50;22.17;;;;;;;11.73;76.31;93573.13;5050248;28;20277;-65
2022/10/22 08:54:04;;;;;;;28.90;22.10;;;;;;;11.96;75.79;93577.81;5049777;28;20230;-65
2022/10/22 08:56:31;;;;;;;32.43;22.33;;;;;;;11.92;75.99;93572.31;5049466;28;20294;-65
2022/10/22 08:59:22;;;;;;;26.70;22.83;;;;;;;12.19;74.52;93572.03;5050411;28;20227;-66
2022/10/22 09:01:51;;;;;;;31.07;21.97;;;;;;;12.47;74.39;93581.94;5049679;28;20206;-66
2022/10/22 09:04:38;;;;;;;27.77;20.97;;;;;;;12.69;71.57;93582.41;5063885;28;20244;-71
2022/10/22 09:07:03;;;;;;;32.27;22.10;;;;;;;12.72;71.18;93584.47;5070133;28;20201;-67
2022/10/22 09:09:34;;;;;;;35.67;22.63;;;;;;;12.50;71.88;93568.31;5069664;28;20259;-68
2022/10/22 09:12:02;;;;;;;28.30;21.97;;;;;;;12.28;73.23;93571.25;5070592;28;21035;-68
2022/10/22 09:14:28;;;;;;;36.33;21.13;;;;;;;12.53;73.10;93571.19;5069783;28;20230;-68
2022/10/22 09:17:26;;;;;;;29.10;22.47;;;;;;;12.84;71.83;93567.41;5070404;28;20225;-68
2022/10/22 09:19:59;;;;;;;30.50;21.07;;;;;;;12.55;73.42;93555.19;5055751;28;20237;-68
2022/10/22 09:22:45;;;;;;;26.47;21.23;;;;;;;12.62;72.76;93561.72;5067074;28;20201;-68
2022/10/22 09:25:22;;;;;;;34.43;22.83;;;;;;;13.03;71.18;93565.00;5069714;28;20231;-67
2022/10/22 09:27:49;;;;;;;25.87;22.17;;;;;;;13.16;70.19;93551.31;5068251;28;20193;-69
2022/10/22 09:30:23;;;;;;;29.00;20.87;;;;;;;13.37;69.48;93567.72;5069043;28;20196;-68
2022/10/22 09:33:16;;;;;;;28.87;20.97;;;;;;;13.05;69.93;93557.66;5068625;28;20186;-66
2022/10/22 09:35:50;;;;;;;24.47;20.27;;;;;;;13.05;70.87;93551.63;5067508;28;20228;-66
2022/10/22 09:38:20;;;;;;;29.23;20.60;;;;;;;13.58;69.05;93554.19;5084395;28;20295;-67
2022/10/22 09:40:49;;;;;;;27.53;23.17;;;;;;;13.57;68.93;93551.84;5066500;28;20319;-67
2022/10/22 09:43:15;;;;;;;25.53;21.00;;;;;;;13.26;69.04;93545.22;5061550;28;20254;-66
2022/10/22 09:45:42;;;;;;;23.67;19.57;;;;;;;13.64;67.73;93547.84;5040260;28;20190;-69
2022/10/22 09:48:13;;;;;;;29.07;21.33;;;;;;;13.64;67.56;93547.06;5039801;28;20236;-70
2022/10/22 09:50:44;;;;;;;26.13;19.97;;;;;;;13.68;70.13;93537.59;5044680;28;20228;-69
2022/10/22 09:53:16;;;;;;;26.13;20.77;;;;;;;13.86;68.00;93523.78;5045020;28;20227;-69
2022/10/22 09:55:42;;;;;;;23.77;20.23;;;;;;;13.93;67.04;93527.66;5040976;28;20233;-69
2022/10/22 09:58:12;;;;;;;25.27;20.03;;;;;;;14.05;66.37;93517.59;5043601;28;20241;-69
2022/10/22 10:00:40;;;;;;;24.57;19.43;;;;;;;14.09;67.22;93523.84;5040013;28;20204;-68
2022/10/22 10:03:05;;;;;;;27.53;21.47;;;;;;;14.22;65.48;93530.28;5041910;28;20230;-69
2022/10/22 10:05:34;;;;;;;25.70;22.50;;;;;;;14.27;65.23;93543.41;5048154;28;20193;-69
2022/10/22 10:08:12;;;;;;;25.17;21.73;;;;;;;13.93;67.23;93529.50;5048298;28;21104;-70
2022/10/22 10:10:49;;;;;;;38.53;31.13;;;;;;;14.34;66.69;93536.75;5047722;28;20218;-70
2022/10/22 10:13:30;;;;;;;30.13;24.80;;;;;;;14.32;67.48;93522.31;5053563;28;20229;-69
2022/10/22 10:16:27;;;;;;;34.83;23.80;;;;;;;14.31;66.38;93515.50;5069461;28;20292;-69
2022/10/22 10:19:25;;;;;;;34.10;22.17;;;;;;;14.26;65.73;93518.97;5058526;28;20234;-69
2022/10/22 10:21:56;;;;;;;28.20;20.63;;;;;;;14.41;65.00;93526.69;5049098;28;20205;-70
2022/10/22 10:24:39;;;;;;;26.23;21.53;;;;;;;14.31;65.40;93526.81;5048620;28;20232;-69
2022/10/22 10:27:13;;;;;;;32.20;23.00;;;;;;;14.23;66.30;93518.69;5049725;28;20253;-69
2022/10/22 10:29:52;;;;;;;28.80;22.20;;;;;;;14.75;63.67;93517.91;5062624;28;20342;-68
2022/10/22 10:32:31;;;;;;;27.60;20.77;;;;;;;14.70;64.78;93517.97;5066205;28;20193;-70
2022/10/22 10:35:10;;;;;;;25.33;22.47;;;;;;;14.65;65.08;93510.13;5066971;28;20253;-69
2022/10/22 10:37:57;;;;;;;26.60;20.80;;;;;;;14.90;63.40;93507.19;5066986;28;20212;-70
2022/10/22 10:40:49;;;;;;;27.10;21.13;;;;;;;14.73;64.16;93501.63;5069108;28;20209;-69
2022/10/22 10:43:33;;;;;;;27.27;21.43;;;;;;;14.82;63.95;93510.47;5068849;28;20229;-70
2022/10/22 10:46:13;;;;;;;27.63;21.80;;;;;;;14.81;65.43;93493.13;5068751;28;20193;-69
2022/10/22 10:48:49;;;;;;;25.83;21.20;;;;;;;14.78;64.21;93494.47;5067586;28;20913;-70
2022/10/22 10:51:37;;;;;;;24.53;21.13;;;;;;;14.97;64.49;93476.88;5069185;28;21042;-67
2022/10/22 10:54:05;;;;;;;28.67;20.63;;;;;;;15.11;64.38;93471.69;5068514;28;20351;-69
2022/10/22 10:56:37;;;;;;;29.57;20.30;;;;;;;15.06;62.55;93475.16;5067191;28;20201;-70
2022/10/22 10:59:05;;;;;;;30.13;22.27;;;;;;;15.02;63.73;93468.88;5068519;28;21288;-70
2022/10/22 11:01:40;;;;;;;25.73;21.17;;;;;;;15.10;63.92;93438.53;5068434;28;20209;-69
2022/10/22 11:04:33;;;;;;;25.83;21.10;;;;;;;15.50;62.61;93453.75;5067106;28;20255;-70
2022/10/22 11:07:06;;;;;;;24.43;19.33;;;;;;;15.43;63.84;93448.06;5068660;28;20193;-69
2022/10/22 11:09:49;;;;;;;20.93;18.70;;;;;;;15.63;62.11;93438.00;5067174;28;20255;-70
2022/10/22 11:12:23;;;;;;;26.20;19.83;;;;;;;15.69;60.84;93446.59;5069068;28;20197;-69
2022/10/22 11:15:19;;;;;;;23.97;19.63;;;;;;;15.50;61.20;93425.56;5069083;28;20280;-69
2022/10/22 11:17:47;;;;;;;25.03;19.90;;;;;;;15.68;61.41;93418.69;5068114;28;20194;-70
2022/10/22 11:20:26;;;;;;;23.67;19.57;;;;;;;15.83;61.13;93436.84;5068456;28;20181;-70
2022/10/22 11:23:01;;;;;;;22.80;20.33;;;;;;;15.77;60.85;93427.50;5067742;28;20177;-70
2022/10/22 11:25:30;;;;;;;26.93;19.80;;;;;;;15.72;60.76;93417.84;5068655;28;20199;-70
2022/10/22 11:28:02;;;;;;;25.23;18.17;;;;;;;16.08;59.47;93423.25;5069023;28;20253;-71
2022/10/22 11:30:34;;;;;;;20.97;18.77;;;;;;;15.96;60.07;93415.84;5068641;28;20215;-70
2022/10/22 11:33:08;;;;;;;24.20;18.37;;;;;;;16.05;60.37;93408.03;5067068;28;20225;-69
2022/10/22 11:35:39;;;;;;;23.27;18.00;;;;;;;16.07;59.43;93405.88;5068024;28;20250;-70